Time;durP1;ratioP1;P1;durP2;ratioP2;P2;SDS_P1;SDS_P2;PMS_P1;PMS_P2;Temp;Humidity;BMP_temperature;BMP_pressure;BME280_temperature;BME280_humidity;BME280_pressure;Samples;Min_cycle;Max_cycle;Signal;HPM_P1;HPM_P2
2021/11/27 00:00:37;;;;;;;9.69;4.86;;;;;;;;;;368933;142;866778;-58
2021/11/27 00:01:39;;;;;;;11.95;8.28;;;;;;;;;;366290;145;866493;-59
2021/11/27 00:02:41;;;;;;;9.33;6.13;;;;;;;;;;367825;143;867169;-59
2021/11/27 00:03:42;;;;;;;10.44;7.03;;;;;;;;;;371193;143;857603;-59
2021/11/27 00:04:44;;;;;;;13.31;8.36;;;;;;;;;;369717;144;865992;-58
2021/11/27 00:05:46;;;;;;;12.00;8.45;;;;;;;;;;368363;143;864928;-58
2021/11/27 00:06:47;;;;;;;8.98;6.77;;;;;;;;;;358547;147;865872;-58
2021/11/27 00:07:50;;;;;;;10.95;5.21;;;;;;;;;;362999;147;865707;-58
2021/11/27 00:08:51;;;;;;;12.44;8.08;;;;;;;;;;359188;147;866692;-58
2021/11/27 00:09:53;;;;;;;12.01;8.46;;;;;;;;;;356838;147;859190;-58
2021/11/27 00:10:55;;;;;;;8.30;5.64;;;;;;;;;;371060;143;864887;-58
2021/11/27 00:11:56;;;;;;;9.35;5.86;;;;;;;;;;372561;142;865044;-58
2021/11/27 00:12:58;;;;;;;13.34;7.85;;;;;;;;;;369023;143;857143;-59
2021/11/27 00:14:00;;;;;;;11.57;6.43;;;;;;;;;;370067;143;865959;-58
2021/11/27 00:15:02;;;;;;;11.40;6.59;;;;;;;;;;367985;143;864861;-59
2021/11/27 00:16:04;;;;;;;13.01;8.91;;;;;;;;;;368067;146;865793;-59
2021/11/27 00:17:05;;;;;;;12.21;6.92;;;;;;;;;;360922;147;857115;-58
2021/11/27 00:18:08;;;;;;;12.87;8.58;;;;;;;;;;361327;147;857323;-59
2021/11/27 00:19:14;;;;;;;10.12;6.43;;;;;;;;;;358820;148;866044;-59
2021/11/27 00:20:15;;;;;;;15.51;9.47;;;;;;;;;;361149;144;858307;-59
2021/11/27 00:21:20;;;;;;;14.51;9.87;;;;;;;;;;366195;144;865065;-59
2021/11/27 00:22:20;;;;;;;14.78;7.85;;;;;;;;;;365484;147;858103;-59
2021/11/27 00:23:23;;;;;;;11.44;7.54;;;;;;;;;;364942;146;864979;-59
2021/11/27 00:24:25;;;;;;;9.98;7.19;;;;;;;;;;364091;144;857156;-59
2021/11/27 00:25:26;;;;;;;9.98;6.71;;;;;;;;;;369032;143;857628;-57
2021/11/27 00:26:28;;;;;;;9.20;6.07;;;;;;;;;;365011;145;857743;-57
2021/11/27 00:27:30;;;;;;;12.99;7.41;;;;;;;;;;367318;142;866632;-58
2021/11/27 00:28:32;;;;;;;15.95;6.40;;;;;;;;;;367572;142;865061;-60
2021/11/27 00:29:33;;;;;;;14.62;9.48;;;;;;;;;;356613;148;867226;-60
2021/11/27 00:30:35;;;;;;;15.24;9.17;;;;;;;;;;357607;147;857234;-60
2021/11/27 00:31:39;;;;;;;8.77;4.88;;;;;;;;;;362363;145;866828;-58
2021/11/27 00:32:40;;;;;;;15.23;9.24;;;;;;;;;;362501;146;865548;-59
2021/11/27 00:33:42;;;;;;;12.04;7.48;;;;;;;;;;362874;145;861288;-59
2021/11/27 00:34:44;;;;;;;13.52;7.11;;;;;;;;;;354210;148;865407;-58
2021/11/27 00:35:45;;;;;;;10.24;6.39;;;;;;;;;;354534;148;865039;-58
2021/11/27 00:36:47;;;;;;;15.03;8.69;;;;;;;;;;364843;146;865199;-58
2021/11/27 00:37:49;;;;;;;14.31;7.82;;;;;;;;;;365062;144;857640;-58
2021/11/27 00:38:51;;;;;;;11.91;7.30;;;;;;;;;;363354;143;867835;-58
2021/11/27 00:39:53;;;;;;;14.89;8.66;;;;;;;;;;367878;142;857367;-58
2021/11/27 00:40:55;;;;;;;12.62;7.94;;;;;;;;;;369501;144;857666;-58
2021/11/27 00:41:56;;;;;;;16.53;8.31;;;;;;;;;;369132;142;864882;-58
2021/11/27 00:42:58;;;;;;;10.87;5.70;;;;;;;;;;364466;144;865863;-59
2021/11/27 00:44:00;;;;;;;13.50;7.51;;;;;;;;;;369582;145;864900;-58
2021/11/27 00:45:03;;;;;;;15.79;10.24;;;;;;;;;;369185;144;857170;-58
2021/11/27 00:46:04;;;;;;;11.99;7.90;;;;;;;;;;368993;143;865510;-59
2021/11/27 00:47:06;;;;;;;11.96;7.94;;;;;;;;;;368477;145;864862;-59
2021/11/27 00:48:08;;;;;;;13.62;8.95;;;;;;;;;;368382;145;864969;-59
2021/11/27 00:49:12;;;;;;;14.87;8.10;;;;;;;;;;367524;142;864955;-59
2021/11/27 00:50:14;;;;;;;14.71;8.26;;;;;;;;;;368636;142;858956;-59
2021/11/27 00:51:17;;;;;;;16.69;9.61;;;;;;;;;;368226;145;857583;-58
2021/11/27 00:52:22;;;;;;;15.66;8.66;;;;;;;;;;366628;143;857693;-59
2021/11/27 00:53:23;;;;;;;10.77;7.32;;;;;;;;;;367689;141;858107;-59
2021/11/27 00:54:25;;;;;;;12.04;7.74;;;;;;;;;;371698;143;858779;-58
2021/11/27 00:55:27;;;;;;;10.96;6.21;;;;;;;;;;366659;145;857270;-58
2021/11/27 00:56:28;;;;;;;14.37;9.27;;;;;;;;;;366844;142;858996;-59
2021/11/27 00:57:30;;;;;;;10.09;6.17;;;;;;;;;;369171;144;857106;-58
2021/11/27 00:58:32;;;;;;;14.27;7.72;;;;;;;;;;369323;145;866079;-59
2021/11/27 00:59:34;;;;;;;11.03;7.21;;;;;;;;;;364828;142;865082;-59
2021/11/27 01:00:37;;;;;;;11.95;8.54;;;;;;;;;;369301;142;866228;-58
2021/11/27 01:01:39;;;;;;;15.31;9.48;;;;;;;;;;367156;145;857344;-57
2021/11/27 01:02:41;;;;;;;14.89;9.58;;;;;;;;;;369339;144;867463;-58
2021/11/27 01:03:43;;;;;;;14.31;7.97;;;;;;;;;;370269;142;866797;-58
2021/11/27 01:04:44;;;;;;;14.90;8.83;;;;;;;;;;367321;143;867049;-59
2021/11/27 01:05:46;;;;;;;15.99;9.94;;;;;;;;;;369339;144;857631;-58
2021/11/27 01:06:48;;;;;;;12.87;6.97;;;;;;;;;;366898;143;865460;-59
2021/11/27 01:07:49;;;;;;;13.22;8.61;;;;;;;;;;366384;141;857349;-58
2021/11/27 01:08:52;;;;;;;11.56;6.84;;;;;;;;;;368061;144;865833;-58
2021/11/27 01:09:53;;;;;;;12.59;6.99;;;;;;;;;;367403;142;864933;-59
2021/11/27 01:10:57;;;;;;;9.88;5.72;;;;;;;;;;369810;142;858693;-58
2021/11/27 01:11:59;;;;;;;13.39;9.07;;;;;;;;;;369560;144;864880;-59
2021/11/27 01:13:00;;;;;;;14.30;7.85;;;;;;;;;;367270;144;857232;-59
2021/11/27 01:14:04;;;;;;;14.25;7.93;;;;;;;;;;367714;142;864953;-58
2021/11/27 01:15:07;;;;;;;14.23;7.92;;;;;;;;;;369833;143;866017;-58
2021/11/27 01:16:10;;;;;;;11.94;7.74;;;;;;;;;;368707;144;857831;-57
2021/11/27 01:17:12;;;;;;;14.18;8.25;;;;;;;;;;368719;145;857181;-59
2021/11/27 01:18:14;;;;;;;14.27;9.93;;;;;;;;;;367382;143;866656;-58
2021/11/27 01:19:15;;;;;;;14.91;8.84;;;;;;;;;;369273;142;858882;-60
2021/11/27 01:20:18;;;;;;;8.47;5.31;;;;;;;;;;368112;143;864914;-60
2021/11/27 01:21:22;;;;;;;10.09;6.58;;;;;;;;;;371241;142;857920;-58
2021/11/27 01:22:23;;;;;;;14.54;8.51;;;;;;;;;;364092;145;857650;-58
2021/11/27 01:23:25;;;;;;;13.53;8.95;;;;;;;;;;355724;151;857601;-58
2021/11/27 01:24:27;;;;;;;13.29;7.23;;;;;;;;;;362128;145;857248;-58
2021/11/27 01:25:28;;;;;;;12.98;7.74;;;;;;;;;;351685;148;866020;-58
2021/11/27 01:26:31;;;;;;;10.09;6.57;;;;;;;;;;370871;145;864862;-58
2021/11/27 01:27:32;;;;;;;14.21;8.38;;;;;;;;;;369894;144;864993;-58
2021/11/27 01:28:34;;;;;;;14.18;8.24;;;;;;;;;;371530;142;857428;-58
2021/11/27 01:29:36;;;;;;;10.54;5.91;;;;;;;;;;369881;143;866358;-58
2021/11/27 01:30:38;;;;;;;10.82;8.25;;;;;;;;;;370856;144;865057;-58
2021/11/27 01:31:40;;;;;;;10.01;5.96;;;;;;;;;;369501;142;859059;-58
2021/11/27 01:32:41;;;;;;;11.53;6.98;;;;;;;;;;368873;142;865095;-58
2021/11/27 01:33:43;;;;;;;11.43;6.97;;;;;;;;;;371718;142;857059;-58
2021/11/27 01:34:47;;;;;;;15.19;8.67;;;;;;;;;;370734;144;858018;-59
2021/11/27 01:35:48;;;;;;;9.19;6.51;;;;;;;;;;368190;142;857183;-59
2021/11/27 01:36:50;;;;;;;12.55;8.49;;;;;;;;;;370271;143;857856;-59
2021/11/27 01:37:52;;;;;;;7.19;5.01;;;;;;;;;;371175;144;858774;-59
2021/11/27 01:38:53;;;;;;;14.87;9.80;;;;;;;;;;367345;142;866535;-58
2021/11/27 01:39:55;;;;;;;9.64;6.13;;;;;;;;;;370344;142;866071;-58
2021/11/27 01:40:57;;;;;;;8.29;5.39;;;;;;;;;;365533;145;865673;-58
2021/11/27 01:41:58;;;;;;;13.84;9.13;;;;;;;;;;366144;145;864963;-58
2021/11/27 01:43:00;;;;;;;9.26;6.19;;;;;;;;;;369596;144;866621;-59
2021/11/27 01:44:02;;;;;;;9.97;5.16;;;;;;;;;;363410;144;857256;-58
2021/11/27 01:45:04;;;;;;;12.31;6.01;;;;;;;;;;363126;145;867479;-58
2021/11/27 01:46:06;;;;;;;10.57;6.22;;;;;;;;;;363390;145;865150;-58
2021/11/27 01:47:08;;;;;;;12.32;8.69;;;;;;;;;;368037;142;857622;-58
2021/11/27 01:48:10;;;;;;;11.09;6.41;;;;;;;;;;370884;145;865847;-58
2021/11/27 01:49:12;;;;;;;9.49;5.33;;;;;;;;;;367777;145;865034;-58
2021/11/27 01:50:14;;;;;;;10.21;6.60;;;;;;;;;;361340;146;866665;-58
2021/11/27 01:51:17;;;;;;;9.93;6.89;;;;;;;;;;362428;148;857324;-58
2021/11/27 01:52:18;;;;;;;9.32;6.27;;;;;;;;;;362464;147;857358;-58
2021/11/27 01:53:22;;;;;;;8.85;5.76;;;;;;;;;;362836;145;858117;-58
2021/11/27 01:54:24;;;;;;;11.36;7.08;;;;;;;;;;358781;145;858637;-58
2021/11/27 01:55:26;;;;;;;11.04;7.39;;;;;;;;;;363696;145;857099;-58
2021/11/27 01:56:29;;;;;;;11.85;8.09;;;;;;;;;;360314;145;864926;-58
2021/11/27 01:57:33;;;;;;;11.82;5.62;;;;;;;;;;361680;146;857228;-58
2021/11/27 01:58:34;;;;;;;10.06;5.46;;;;;;;;;;360807;146;859994;-58
2021/11/27 01:59:37;;;;;;;7.21;5.14;;;;;;;;;;361247;148;860397;-58
2021/11/27 02:00:40;;;;;;;10.57;6.75;;;;;;;;;;361617;147;866181;-58
2021/11/27 02:01:42;;;;;;;9.50;7.11;;;;;;;;;;363309;146;857297;-58
2021/11/27 02:02:43;;;;;;;6.96;5.14;;;;;;;;;;364412;144;858521;-58
2021/11/27 02:03:45;;;;;;;10.39;7.04;;;;;;;;;;368046;142;865153;-58
2021/11/27 02:04:47;;;;;;;8.53;6.00;;;;;;;;;;370105;142;865038;-58
2021/11/27 02:05:49;;;;;;;10.64;6.12;;;;;;;;;;369172;145;865394;-58
2021/11/27 02:06:50;;;;;;;11.17;7.26;;;;;;;;;;367873;145;860501;-58
2021/11/27 02:07:52;;;;;;;10.76;6.84;;;;;;;;;;370018;142;857275;-58
2021/11/27 02:08:54;;;;;;;9.94;7.18;;;;;;;;;;368269;143;866743;-58
2021/11/27 02:09:56;;;;;;;9.31;6.25;;;;;;;;;;370206;144;866477;-58
2021/11/27 02:10:57;;;;;;;8.67;6.11;;;;;;;;;;367689;145;857234;-57
2021/11/27 02:11:59;;;;;;;11.77;6.64;;;;;;;;;;369231;142;866321;-59
2021/11/27 02:13:01;;;;;;;10.62;4.82;;;;;;;;;;367618;145;864989;-58
2021/11/27 02:14:03;;;;;;;8.19;5.30;;;;;;;;;;365873;145;857168;-58
2021/11/27 02:15:05;;;;;;;7.75;4.89;;;;;;;;;;364430;141;865636;-59
2021/11/27 02:16:07;;;;;;;9.35;7.22;;;;;;;;;;363577;143;859483;-59
2021/11/27 02:17:10;;;;;;;8.77;5.65;;;;;;;;;;369683;144;857144;-59
2021/11/27 02:18:11;;;;;;;8.12;4.72;;;;;;;;;;369811;142;865915;-59
2021/11/27 02:19:13;;;;;;;5.89;4.62;;;;;;;;;;368938;142;858290;-59
2021/11/27 02:20:15;;;;;;;9.34;5.09;;;;;;;;;;359052;145;864896;-59
2021/11/27 02:21:19;;;;;;;8.72;5.47;;;;;;;;;;369527;145;858971;-58
2021/11/27 02:22:21;;;;;;;9.39;5.87;;;;;;;;;;370341;142;857127;-59
2021/11/27 02:23:23;;;;;;;10.32;5.21;;;;;;;;;;370735;143;857263;-59
2021/11/27 02:24:25;;;;;;;9.32;5.14;;;;;;;;;;373465;142;864760;-59
2021/11/27 02:25:27;;;;;;;10.96;5.77;;;;;;;;;;367419;142;864751;-59
2021/11/27 02:26:31;;;;;;;8.22;5.59;;;;;;;;;;369803;142;857831;-58
2021/11/27 02:27:32;;;;;;;8.43;5.32;;;;;;;;;;367608;144;857222;-58
2021/11/27 02:28:35;;;;;;;6.19;3.56;;;;;;;;;;368772;145;857988;-59
2021/11/27 02:29:36;;;;;;;8.40;4.31;;;;;;;;;;367636;142;866156;-59
2021/11/27 02:30:39;;;;;;;7.41;4.34;;;;;;;;;;367837;143;857320;-59
2021/11/27 02:31:41;;;;;;;5.93;4.54;;;;;;;;;;366318;142;864938;-60
2021/11/27 02:32:42;;;;;;;7.17;4.90;;;;;;;;;;370926;144;857160;-58
2021/11/27 02:33:44;;;;;;;4.06;3.19;;;;;;;;;;368175;142;866146;-59
2021/11/27 02:34:46;;;;;;;5.20;3.81;;;;;;;;;;369672;145;865203;-58
2021/11/27 02:35:47;;;;;;;8.89;6.14;;;;;;;;;;370168;145;864777;-59
2021/11/27 02:36:51;;;;;;;5.24;4.11;;;;;;;;;;370691;142;864939;-58
2021/11/27 02:37:52;;;;;;;5.75;3.79;;;;;;;;;;364990;143;859726;-58
2021/11/27 02:38:55;;;;;;;6.56;4.76;;;;;;;;;;368728;144;858878;-58
2021/11/27 02:39:56;;;;;;;4.93;3.62;;;;;;;;;;370496;144;864789;-58
2021/11/27 02:40:58;;;;;;;6.29;4.45;;;;;;;;;;371498;142;857795;-58
2021/11/27 02:42:00;;;;;;;4.45;3.38;;;;;;;;;;368648;145;864958;-58
2021/11/27 02:43:01;;;;;;;6.80;3.68;;;;;;;;;;369913;144;864880;-58
2021/11/27 02:44:03;;;;;;;5.14;4.14;;;;;;;;;;369458;141;864779;-58
2021/11/27 02:45:05;;;;;;;5.18;3.85;;;;;;;;;;366358;144;866660;-58
2021/11/27 02:46:07;;;;;;;9.17;4.49;;;;;;;;;;368805;144;858986;-59
2021/11/27 02:47:09;;;;;;;7.89;4.11;;;;;;;;;;369469;142;864766;-58
2021/11/27 02:48:11;;;;;;;5.93;4.19;;;;;;;;;;364211;145;860066;-58
2021/11/27 02:49:12;;;;;;;8.46;4.06;;;;;;;;;;367947;145;865151;-58
2021/11/27 02:50:16;;;;;;;9.43;4.12;;;;;;;;;;370750;144;865274;-57
2021/11/27 02:51:17;;;;;;;6.83;4.98;;;;;;;;;;364138;143;857756;-58
2021/11/27 02:52:20;;;;;;;4.96;3.83;;;;;;;;;;367605;145;864783;-58
2021/11/27 02:53:22;;;;;;;4.76;3.24;;;;;;;;;;365513;145;866122;-57
2021/11/27 02:54:26;;;;;;;3.98;2.89;;;;;;;;;;371070;144;859796;-58
2021/11/27 02:55:27;;;;;;;3.97;3.11;;;;;;;;;;370409;142;864769;-58
2021/11/27 02:56:29;;;;;;;6.74;4.06;;;;;;;;;;369284;144;857588;-57
2021/11/27 02:57:30;;;;;;;5.28;2.94;;;;;;;;;;367817;145;865997;-58
2021/11/27 02:58:32;;;;;;;5.18;3.58;;;;;;;;;;372063;141;857276;-58
2021/11/27 02:59:34;;;;;;;7.32;4.46;;;;;;;;;;368751;142;864911;-58
2021/11/27 03:00:36;;;;;;;7.08;3.31;;;;;;;;;;371437;142;865737;-58
2021/11/27 03:01:37;;;;;;;6.44;4.01;;;;;;;;;;369232;145;857286;-58
2021/11/27 03:02:39;;;;;;;6.06;3.79;;;;;;;;;;366230;142;865453;-59
2021/11/27 03:03:41;;;;;;;4.17;3.11;;;;;;;;;;369245;145;865542;-57
2021/11/27 03:04:43;;;;;;;6.35;4.28;;;;;;;;;;368934;144;857186;-58
2021/11/27 03:05:45;;;;;;;5.74;3.42;;;;;;;;;;369183;144;865020;-58
2021/11/27 03:06:47;;;;;;;5.33;3.77;;;;;;;;;;370411;143;860062;-58
2021/11/27 03:07:49;;;;;;;4.80;3.85;;;;;;;;;;369673;144;857787;-58
2021/11/27 03:08:51;;;;;;;5.09;3.72;;;;;;;;;;367962;145;864734;-58
2021/11/27 03:09:52;;;;;;;4.26;2.66;;;;;;;;;;366107;142;858973;-58
2021/11/27 03:10:54;;;;;;;4.54;2.64;;;;;;;;;;371258;142;864738;-58
2021/11/27 03:11:56;;;;;;;2.98;2.43;;;;;;;;;;369880;142;865994;-56
2021/11/27 03:12:58;;;;;;;4.89;3.69;;;;;;;;;;367098;142;857760;-57
2021/11/27 03:13:59;;;;;;;4.79;3.41;;;;;;;;;;363592;142;857133;-58
2021/11/27 03:15:01;;;;;;;3.07;2.56;;;;;;;;;;369822;143;866295;-55
2021/11/27 03:16:03;;;;;;;4.33;2.90;;;;;;;;;;367538;143;866583;-57
2021/11/27 03:17:05;;;;;;;3.65;2.77;;;;;;;;;;368170;143;857118;-58
2021/11/27 03:18:09;;;;;;;3.46;2.32;;;;;;;;;;372702;143;857258;-57
2021/11/27 03:19:11;;;;;;;3.33;2.40;;;;;;;;;;366469;145;866809;-58
2021/11/27 03:20:13;;;;;;;3.53;2.62;;;;;;;;;;368517;141;857206;-58
2021/11/27 03:21:15;;;;;;;3.84;2.53;;;;;;;;;;368342;145;857135;-56
2021/11/27 03:22:17;;;;;;;4.68;3.36;;;;;;;;;;368612;145;858948;-58
2021/11/27 03:23:19;;;;;;;3.69;2.71;;;;;;;;;;365728;144;857875;-58
2021/11/27 03:24:21;;;;;;;3.49;2.11;;;;;;;;;;367313;142;859666;-58
2021/11/27 03:25:22;;;;;;;5.70;2.72;;;;;;;;;;370312;143;856946;-57
2021/11/27 03:26:24;;;;;;;3.51;2.21;;;;;;;;;;368904;143;866794;-56
2021/11/27 03:27:26;;;;;;;3.18;2.58;;;;;;;;;;367994;142;857134;-57
2021/11/27 03:28:27;;;;;;;5.49;3.41;;;;;;;;;;369942;144;857038;-57
2021/11/27 03:29:29;;;;;;;4.11;2.28;;;;;;;;;;361631;145;865435;-58
2021/11/27 03:30:31;;;;;;;4.97;2.88;;;;;;;;;;365619;141;866696;-58
2021/11/27 03:31:32;;;;;;;3.99;2.75;;;;;;;;;;367090;143;858804;-58
2021/11/27 03:32:34;;;;;;;7.03;3.81;;;;;;;;;;367903;145;865027;-57
2021/11/27 03:33:37;;;;;;;5.26;2.96;;;;;;;;;;366268;144;865638;-58
2021/11/27 03:34:39;;;;;;;5.82;3.26;;;;;;;;;;367651;143;864909;-59
2021/11/27 03:35:41;;;;;;;6.00;3.37;;;;;;;;;;366690;142;857843;-58
2021/11/27 03:36:43;;;;;;;7.26;2.43;;;;;;;;;;369020;145;865315;-58
2021/11/27 03:37:45;;;;;;;7.33;3.85;;;;;;;;;;363758;142;858436;-58
2021/11/27 03:38:46;;;;;;;5.18;2.79;;;;;;;;;;367389;143;866466;-58
2021/11/27 03:39:48;;;;;;;6.68;2.41;;;;;;;;;;370690;143;864657;-58
2021/11/27 03:40:50;;;;;;;4.95;2.74;;;;;;;;;;367859;145;865641;-58
2021/11/27 03:41:52;;;;;;;4.73;2.41;;;;;;;;;;366981;142;864905;-58
2021/11/27 03:42:53;;;;;;;5.11;2.76;;;;;;;;;;365640;145;857297;-58
2021/11/27 03:43:55;;;;;;;6.98;3.10;;;;;;;;;;369816;144;865123;-58
2021/11/27 03:44:57;;;;;;;6.11;3.04;;;;;;;;;;367833;142;864770;-58
2021/11/27 03:45:59;;;;;;;5.48;2.92;;;;;;;;;;366452;144;864436;-58
2021/11/27 03:47:01;;;;;;;3.12;2.45;;;;;;;;;;368489;143;865755;-58
2021/11/27 03:48:04;;;;;;;7.78;3.03;;;;;;;;;;370166;144;857236;-58
2021/11/27 03:49:06;;;;;;;3.33;1.91;;;;;;;;;;369216;141;865537;-58
2021/11/27 03:50:08;;;;;;;4.55;1.93;;;;;;;;;;369300;144;864878;-58
2021/11/27 03:51:12;;;;;;;4.42;2.53;;;;;;;;;;369158;144;859868;-58
2021/11/27 03:52:13;;;;;;;4.96;2.37;;;;;;;;;;366195;142;857158;-58
2021/11/27 03:53:17;;;;;;;3.99;1.89;;;;;;;;;;370337;144;857573;-58
2021/11/27 03:54:18;;;;;;;4.71;2.31;;;;;;;;;;367040;142;865560;-57
2021/11/27 03:55:20;;;;;;;4.16;2.14;;;;;;;;;;369946;144;859492;-58
2021/11/27 03:56:26;;;;;;;4.29;2.57;;;;;;;;;;364964;142;858937;-58
2021/11/27 03:57:27;;;;;;;3.34;1.82;;;;;;;;;;371356;144;858475;-58
2021/11/27 03:58:28;;;;;;;7.67;3.23;;;;;;;;;;368960;142;861700;-57
2021/11/27 03:59:30;;;;;;;4.44;2.56;;;;;;;;;;371534;139;858162;-58
2021/11/27 04:00:32;;;;;;;8.60;3.08;;;;;;;;;;368775;143;865046;-58
2021/11/27 04:01:33;;;;;;;6.86;3.04;;;;;;;;;;363948;146;865723;-57
2021/11/27 04:02:35;;;;;;;8.76;3.56;;;;;;;;;;370019;143;864974;-58
2021/11/27 04:03:37;;;;;;;9.83;3.74;;;;;;;;;;365413;143;863219;-60
2021/11/27 04:04:40;;;;;;;5.75;2.67;;;;;;;;;;362092;148;865342;-58
2021/11/27 04:05:43;;;;;;;9.09;3.33;;;;;;;;;;355694;148;858167;-58
2021/11/27 04:06:45;;;;;;;9.14;2.65;;;;;;;;;;355222;149;858503;-58
2021/11/27 04:07:46;;;;;;;3.42;1.90;;;;;;;;;;357386;148;857830;-58
2021/11/27 04:08:48;;;;;;;6.11;3.04;;;;;;;;;;359116;145;864644;-58
2021/11/27 04:09:49;;;;;;;3.76;2.16;;;;;;;;;;361490;146;859391;-59
2021/11/27 04:10:51;;;;;;;2.43;1.79;;;;;;;;;;359005;146;864729;-59
2021/11/27 04:11:52;;;;;;;2.12;1.74;;;;;;;;;;360712;148;864597;-59
2021/11/27 04:12:54;;;;;;;2.39;1.51;;;;;;;;;;361195;145;857206;-59
2021/11/27 04:13:56;;;;;;;7.36;2.98;;;;;;;;;;365727;144;865438;-60
2021/11/27 04:14:57;;;;;;;2.04;1.70;;;;;;;;;;366360;144;865623;-58
2021/11/27 04:15:59;;;;;;;4.71;2.94;;;;;;;;;;362596;147;864901;-58
2021/11/27 04:17:01;;;;;;;2.50;1.46;;;;;;;;;;360088;147;865472;-58
2021/11/27 04:18:02;;;;;;;2.61;1.55;;;;;;;;;;366394;145;865687;-58
2021/11/27 04:19:04;;;;;;;2.70;1.71;;;;;;;;;;363296;145;865207;-57
2021/11/27 04:20:06;;;;;;;2.84;1.61;;;;;;;;;;361895;146;864563;-59
2021/11/27 04:21:08;;;;;;;4.38;2.18;;;;;;;;;;359775;146;860531;-59
2021/11/27 04:22:10;;;;;;;3.65;2.21;;;;;;;;;;359308;149;857311;-60
2021/11/27 04:23:12;;;;;;;4.34;2.81;;;;;;;;;;368143;143;859143;-61
2021/11/27 04:24:13;;;;;;;8.29;3.50;;;;;;;;;;354602;149;864822;-57
2021/11/27 04:25:15;;;;;;;3.22;2.24;;;;;;;;;;353571;149;857443;-58
2021/11/27 04:26:19;;;;;;;1.91;1.49;;;;;;;;;;354978;151;865174;-61
2021/11/27 04:27:20;;;;;;;6.09;2.57;;;;;;;;;;353726;150;857320;-61
2021/11/27 04:28:22;;;;;;;3.06;1.99;;;;;;;;;;354050;149;858259;-60
2021/11/27 04:29:24;;;;;;;3.94;2.76;;;;;;;;;;354093;151;864506;-61
2021/11/27 04:30:26;;;;;;;3.84;1.94;;;;;;;;;;352179;151;865665;-59
2021/11/27 04:31:28;;;;;;;2.76;1.91;;;;;;;;;;355738;149;857179;-58
2021/11/27 04:32:29;;;;;;;3.16;1.99;;;;;;;;;;354615;150;858512;-58
2021/11/27 04:33:31;;;;;;;2.89;2.21;;;;;;;;;;354918;150;866394;-58
2021/11/27 04:34:33;;;;;;;3.01;2.14;;;;;;;;;;352632;149;865520;-56
2021/11/27 04:35:34;;;;;;;4.29;2.21;;;;;;;;;;360270;147;864511;-56
2021/11/27 04:36:36;;;;;;;2.68;2.11;;;;;;;;;;354605;151;865053;-56
2021/11/27 04:37:38;;;;;;;2.15;1.75;;;;;;;;;;355037;149;864565;-56
2021/11/27 04:38:39;;;;;;;2.11;1.85;;;;;;;;;;353822;150;865164;-57
2021/11/27 04:39:41;;;;;;;3.03;2.14;;;;;;;;;;353384;150;864703;-56
2021/11/27 04:40:42;;;;;;;3.57;2.41;;;;;;;;;;353301;151;865251;-57
2021/11/27 04:41:44;;;;;;;2.77;2.13;;;;;;;;;;354218;149;864610;-56
2021/11/27 04:42:46;;;;;;;3.91;2.91;;;;;;;;;;354549;149;858840;-56
2021/11/27 04:43:48;;;;;;;2.49;2.06;;;;;;;;;;352794;151;864791;-57
2021/11/27 04:44:49;;;;;;;3.31;2.66;;;;;;;;;;353245;149;862318;-57
2021/11/27 04:45:51;;;;;;;3.09;2.41;;;;;;;;;;359208;148;866020;-57
2021/11/27 04:46:53;;;;;;;3.39;2.49;;;;;;;;;;355256;149;864836;-57
2021/11/27 04:47:54;;;;;;;4.21;3.28;;;;;;;;;;355128;149;866402;-56
2021/11/27 04:48:56;;;;;;;3.89;2.61;;;;;;;;;;356410;148;865541;-57
2021/11/27 04:49:57;;;;;;;3.51;2.98;;;;;;;;;;356436;148;864829;-56
2021/11/27 04:50:59;;;;;;;5.71;2.54;;;;;;;;;;354976;150;858258;-55
2021/11/27 04:52:01;;;;;;;3.38;2.71;;;;;;;;;;357359;148;865033;-54
2021/11/27 04:53:03;;;;;;;2.60;2.01;;;;;;;;;;356422;148;868290;-57
2021/11/27 04:54:05;;;;;;;3.55;2.78;;;;;;;;;;355679;148;864578;-56
2021/11/27 04:55:07;;;;;;;3.29;2.59;;;;;;;;;;354173;151;866587;-55
2021/11/27 04:56:09;;;;;;;4.69;2.69;;;;;;;;;;355288;148;864700;-55
2021/11/27 04:57:11;;;;;;;3.53;2.32;;;;;;;;;;357146;148;857305;-56
2021/11/27 04:58:12;;;;;;;3.33;2.28;;;;;;;;;;355115;148;866466;-54
2021/11/27 04:59:14;;;;;;;4.77;3.43;;;;;;;;;;348450;152;857574;-56
2021/11/27 05:00:18;;;;;;;3.85;2.75;;;;;;;;;;351468;150;858800;-54
2021/11/27 05:01:22;;;;;;;7.21;3.82;;;;;;;;;;354320;148;857229;-55
2021/11/27 05:02:24;;;;;;;5.50;3.45;;;;;;;;;;354991;151;865179;-57
2021/11/27 05:03:25;;;;;;;5.89;4.21;;;;;;;;;;356571;148;866918;-58
2021/11/27 05:04:28;;;;;;;7.35;4.18;;;;;;;;;;355762;148;864824;-59
2021/11/27 05:05:29;;;;;;;3.92;2.41;;;;;;;;;;357209;148;864071;-54
2021/11/27 05:06:31;;;;;;;5.99;3.82;;;;;;;;;;355399;149;858621;-56
2021/11/27 05:07:32;;;;;;;6.65;3.84;;;;;;;;;;355180;149;866563;-55
2021/11/27 05:08:34;;;;;;;4.41;3.96;;;;;;;;;;356365;148;858704;-56
2021/11/27 05:09:36;;;;;;;6.26;4.49;;;;;;;;;;356408;150;864802;-57
2021/11/27 05:10:38;;;;;;;5.39;3.61;;;;;;;;;;354149;148;862113;-56
2021/11/27 05:11:39;;;;;;;4.04;2.83;;;;;;;;;;355123;148;857347;-57
2021/11/27 05:12:41;;;;;;;7.84;4.24;;;;;;;;;;354211;150;857896;-55
2021/11/27 05:13:43;;;;;;;5.66;3.56;;;;;;;;;;359014;146;864782;-55
2021/11/27 05:14:44;;;;;;;6.89;4.12;;;;;;;;;;358434;148;865423;-56
2021/11/27 05:15:46;;;;;;;6.03;4.24;;;;;;;;;;352733;150;865133;-56
2021/11/27 05:16:48;;;;;;;6.11;3.91;;;;;;;;;;354199;150;866495;-56
2021/11/27 05:17:49;;;;;;;7.37;5.11;;;;;;;;;;353830;149;864756;-56
2021/11/27 05:18:51;;;;;;;5.36;4.52;;;;;;;;;;353985;149;859005;-55
2021/11/27 05:19:52;;;;;;;7.72;5.00;;;;;;;;;;351770;151;865494;-56
2021/11/27 05:20:54;;;;;;;7.06;5.18;;;;;;;;;;354865;149;866675;-56
2021/11/27 05:21:56;;;;;;;7.89;4.43;;;;;;;;;;353954;149;865685;-56
2021/11/27 05:22:57;;;;;;;8.86;5.55;;;;;;;;;;354609;149;864799;-56
2021/11/27 05:23:59;;;;;;;6.30;4.23;;;;;;;;;;361006;147;865021;-56
2021/11/27 05:25:01;;;;;;;7.39;5.53;;;;;;;;;;355758;148;864741;-58
2021/11/27 05:26:02;;;;;;;7.07;4.24;;;;;;;;;;353037;149;865406;-58
2021/11/27 05:27:04;;;;;;;5.84;4.31;;;;;;;;;;352095;151;857090;-57
2021/11/27 05:28:06;;;;;;;6.21;4.38;;;;;;;;;;356045;149;864929;-59
2021/11/27 05:29:07;;;;;;;7.68;4.36;;;;;;;;;;354386;149;864886;-58
2021/11/27 05:30:10;;;;;;;4.56;3.47;;;;;;;;;;355196;149;865128;-58
2021/11/27 05:31:14;;;;;;;7.36;4.77;;;;;;;;;;355935;151;857717;-59
2021/11/27 05:34:45;;;;;;;6.46;4.69;;;;;;;;;;349413;149;857873;-57
2021/11/27 05:35:47;;;;;;;8.27;5.49;;;;;;;;;;358377;148;857215;-57
2021/11/27 05:36:49;;;;;;;11.82;6.66;;;;;;;;;;356586;148;865045;-57
2021/11/27 05:37:50;;;;;;;5.57;3.59;;;;;;;;;;354707;149;865681;-57
2021/11/27 05:38:52;;;;;;;5.86;4.08;;;;;;;;;;353508;150;864778;-57
2021/11/27 05:39:53;;;;;;;8.40;5.72;;;;;;;;;;360735;147;865592;-58
2021/11/27 05:40:55;;;;;;;9.23;5.49;;;;;;;;;;360596;146;866628;-57
2021/11/27 05:41:57;;;;;;;9.44;4.56;;;;;;;;;;357657;149;865769;-58
2021/11/27 05:42:58;;;;;;;9.46;6.29;;;;;;;;;;359905;147;864985;-57
2021/11/27 05:44:00;;;;;;;7.64;5.69;;;;;;;;;;354897;148;865790;-57
2021/11/27 05:45:02;;;;;;;6.50;4.58;;;;;;;;;;362401;147;864685;-57
2021/11/27 05:46:04;;;;;;;8.32;5.41;;;;;;;;;;353590;150;861025;-57
2021/11/27 05:47:05;;;;;;;8.29;5.12;;;;;;;;;;354265;148;857697;-59
2021/11/27 05:48:07;;;;;;;8.78;5.46;;;;;;;;;;355341;148;866412;-56
2021/11/27 05:49:09;;;;;;;8.91;5.18;;;;;;;;;;354105;152;865060;-57
2021/11/27 05:50:11;;;;;;;8.89;5.53;;;;;;;;;;356941;148;863802;-58
2021/11/27 05:51:12;;;;;;;10.79;6.40;;;;;;;;;;354088;149;858589;-57
2021/11/27 05:52:14;;;;;;;11.04;6.13;;;;;;;;;;354169;151;865706;-57
2021/11/27 05:53:18;;;;;;;8.31;5.48;;;;;;;;;;355088;148;857132;-57
2021/11/27 05:54:19;;;;;;;13.00;6.47;;;;;;;;;;356643;147;857152;-58
2021/11/27 05:55:21;;;;;;;9.37;5.71;;;;;;;;;;355458;149;857278;-57
2021/11/27 05:56:24;;;;;;;9.70;6.44;;;;;;;;;;347492;151;857806;-58
2021/11/27 05:57:26;;;;;;;8.83;6.57;;;;;;;;;;353572;148;857415;-58
2021/11/27 05:58:28;;;;;;;8.24;5.71;;;;;;;;;;354594;148;857829;-58
2021/11/27 05:59:30;;;;;;;10.91;6.76;;;;;;;;;;354071;150;857695;-58
2021/11/27 06:00:31;;;;;;;8.42;6.30;;;;;;;;;;356551;148;859252;-58
2021/11/27 06:01:33;;;;;;;9.73;6.21;;;;;;;;;;356134;148;859040;-58
2021/11/27 06:02:35;;;;;;;11.03;7.21;;;;;;;;;;354034;149;865030;-58
2021/11/27 06:03:37;;;;;;;8.80;5.84;;;;;;;;;;355841;149;859075;-58
2021/11/27 06:04:38;;;;;;;11.93;6.82;;;;;;;;;;356992;148;866854;-57
2021/11/27 06:05:40;;;;;;;10.84;5.99;;;;;;;;;;356247;148;857436;-55
2021/11/27 06:06:42;;;;;;;10.20;6.35;;;;;;;;;;355933;148;864938;-55